createdAt,value
2023-01-03T00:00:16.535Z,1.37
2023-01-03T00:02:48.576Z,1.50
2023-01-03T00:05:20.557Z,1.60
2023-01-03T00:07:52.430Z,1.50
2023-01-03T00:10:24.337Z,1.60
2023-01-03T00:12:57.705Z,1.50
2023-01-03T00:15:29.855Z,1.62
2023-01-03T00:18:01.911Z,1.50
2023-01-03T00:20:35.640Z,1.70
2023-01-03T00:23:07.518Z,1.50
2023-01-03T00:25:39.506Z,1.32
2023-01-03T00:28:11.442Z,1.40
2023-01-03T00:30:43.414Z,1.10
2023-01-03T00:33:15.474Z,1.20
2023-01-03T00:35:47.463Z,1.22
2023-01-03T00:38:19.394Z,1.30
2023-01-03T00:40:51.249Z,1.40
2023-01-03T00:43:32.069Z,1.10
2023-01-03T00:46:05.150Z,1.35
2023-01-03T00:48:37.766Z,1.40
2023-01-03T00:51:12.086Z,1.22
2023-01-03T00:53:56.229Z,1.60
2023-01-03T00:56:30.782Z,1.82
2023-01-03T00:59:02.764Z,1.80
2023-01-03T01:01:45.812Z,1.65
2023-01-03T01:04:14.196Z,1.80
2023-01-03T01:06:48.585Z,2.00
2023-01-03T01:09:24.082Z,1.70
2023-01-03T01:11:56.358Z,1.70
2023-01-03T01:14:30.413Z,1.65
2023-01-03T01:19:37.865Z,1.90
2023-01-03T01:22:10.394Z,1.92
2023-01-03T01:24:42.726Z,1.82
2023-01-03T01:27:14.760Z,2.10
2023-01-03T01:29:46.616Z,2.72
2023-01-03T01:32:18.550Z,2.55
2023-01-03T01:34:50.528Z,2.83
2023-01-03T01:37:22.649Z,3.37
2023-01-03T01:39:54.719Z,3.12
2023-01-03T01:42:43.359Z,3.52
2023-01-03T01:45:15.821Z,3.22
2023-01-03T01:48:02.427Z,3.45
2023-01-03T01:50:43.825Z,2.98
2023-01-03T01:53:24.373Z,3.02
2023-01-03T01:55:59.176Z,2.65
2023-01-03T01:58:33.945Z,2.33
2023-01-03T02:01:08.413Z,2.58
2023-01-03T02:03:42.312Z,2.08
2023-01-03T02:06:16.398Z,1.70
2023-01-03T02:08:48.252Z,3.20
2023-01-03T02:11:54.465Z,1.92
2023-01-03T02:14:32.326Z,1.60
2023-01-03T02:17:24.178Z,1.82
2023-01-03T02:20:19.719Z,2.02
2023-01-03T02:23:11.039Z,1.85
2023-01-03T02:26:01.929Z,1.92
2023-01-03T02:28:45.216Z,1.60
2023-01-03T02:31:25.874Z,1.77
2023-01-03T02:34:33.028Z,1.75
2023-01-03T02:37:16.549Z,3.20
2023-01-03T02:39:57.045Z,2.15
2023-01-03T02:42:58.780Z,1.55
2023-01-03T02:45:33.737Z,1.87
2023-01-03T02:48:14.730Z,2.35
2023-01-03T02:50:55.358Z,2.25
2023-01-03T02:53:30.338Z,1.90
2023-01-03T02:56:05.313Z,2.20
2023-01-03T02:58:39.406Z,1.70
2023-01-03T03:01:13.713Z,1.75
2023-01-03T03:03:48.316Z,2.37
2023-01-03T03:06:44.237Z,1.60
2023-01-03T03:09:16.396Z,0.82
2023-01-03T03:12:07.528Z,0.70
2023-01-03T03:14:42.395Z,1.45
2023-01-03T03:17:26.430Z,0.90
2023-01-03T03:20:17.189Z,0.95
2023-01-03T03:23:12.160Z,1.00
2023-01-03T03:25:55.533Z,1.05
2023-01-03T03:28:36.154Z,1.00
2023-01-03T03:31:25.900Z,1.20
2023-01-03T03:34:20.438Z,1.42
2023-01-03T03:37:06.700Z,1.30
2023-01-03T03:39:56.988Z,2.05
2023-01-03T03:42:50.952Z,2.10
2023-01-03T03:45:31.555Z,2.12
2023-01-03T03:48:12.233Z,2.08
2023-01-03T03:51:03.366Z,1.60
2023-01-03T03:53:38.905Z,2.15
2023-01-03T03:56:13.812Z,2.35
2023-01-03T03:58:51.542Z,3.30
2023-01-03T04:01:26.382Z,2.50
2023-01-03T04:04:01.370Z,2.42
2023-01-03T04:06:38.709Z,2.27
2023-01-03T04:09:10.875Z,2.42
2023-01-03T04:11:43.224Z,1.65
2023-01-03T04:14:15.467Z,1.87
2023-01-03T04:16:47.507Z,2.25
2023-01-03T04:19:19.381Z,2.30
2023-01-03T04:21:51.404Z,1.87
2023-01-03T04:24:23.576Z,1.60
2023-01-03T04:26:55.714Z,2.17
2023-01-03T04:29:27.681Z,1.50
2023-01-03T04:31:59.652Z,1.90
2023-01-03T04:34:31.915Z,1.67
2023-01-03T04:37:03.924Z,2.30
2023-01-03T04:39:36.025Z,1.55
2023-01-03T04:42:09.629Z,1.98
2023-01-03T04:44:41.649Z,2.10
2023-01-03T04:47:13.890Z,1.67
2023-01-03T04:49:47.392Z,1.90
2023-01-03T04:52:20.337Z,1.82
2023-01-03T04:54:52.546Z,1.77
2023-01-03T04:57:24.469Z,1.95
2023-01-03T04:59:56.357Z,2.45
2023-01-03T05:02:28.719Z,1.92
2023-01-03T05:05:00.749Z,2.17
2023-01-03T05:07:33.004Z,2.30
2023-01-03T05:10:05.156Z,1.87
2023-01-03T05:12:37.141Z,2.20
2023-01-03T05:15:10.044Z,1.80
2023-01-03T05:17:42.050Z,2.08
2023-01-03T05:20:31.792Z,2.80
2023-01-03T05:23:21.605Z,2.37
2023-01-03T05:25:53.558Z,2.10
2023-01-03T05:28:25.829Z,2.52
2023-01-03T05:30:59.967Z,2.20
2023-01-03T05:33:31.921Z,2.25
2023-01-03T05:36:03.922Z,2.40
2023-01-03T05:38:35.891Z,2.47
2023-01-03T05:41:08.170Z,2.90
2023-01-03T05:43:40.062Z,2.40
2023-01-03T05:46:12.034Z,2.85
2023-01-03T05:48:44.940Z,3.20
2023-01-03T05:51:17.021Z,3.85
2023-01-03T05:53:49.778Z,3.12
2023-01-03T05:56:21.927Z,3.52
2023-01-03T05:58:53.894Z,3.25
2023-01-03T06:01:27.401Z,2.77
2023-01-03T06:03:59.521Z,3.05
2023-01-03T06:06:31.582Z,3.22
2023-01-03T06:09:03.551Z,3.12
2023-01-03T06:11:35.567Z,2.87
2023-01-03T06:14:08.176Z,2.83
2023-01-03T06:16:57.823Z,2.87
2023-01-03T06:19:29.839Z,2.70
2023-01-03T06:22:07.064Z,4.67
2023-01-03T06:24:35.981Z,2.92
2023-01-03T06:27:08.380Z,3.27
2023-01-03T06:29:40.749Z,3.17
2023-01-03T06:32:12.765Z,3.62
2023-01-03T06:34:44.590Z,3.92
2023-01-03T06:37:16.662Z,3.30
2023-01-03T06:39:48.539Z,3.50
2023-01-03T06:42:38.417Z,3.00
2023-01-03T06:45:30.051Z,3.27
2023-01-03T06:48:24.176Z,3.72
2023-01-03T06:51:14.052Z,2.10
2023-01-03T06:53:45.981Z,3.45
2023-01-03T06:56:18.530Z,2.87
2023-01-03T06:58:50.779Z,2.55
2023-01-03T07:01:22.959Z,2.98
2023-01-03T07:03:55.140Z,2.58
2023-01-03T07:06:29.145Z,2.42
2023-01-03T07:09:01.457Z,2.77
2023-01-03T07:11:33.701Z,2.60
2023-01-03T07:14:07.134Z,3.33
2023-01-03T07:16:42.449Z,2.92
2023-01-03T07:19:20.956Z,3.00
2023-01-03T07:21:52.951Z,2.98
2023-01-03T07:24:24.983Z,3.60
2023-01-03T07:26:57.084Z,3.33
2023-01-03T07:29:29.221Z,3.30
2023-01-03T07:32:01.125Z,4.37
2023-01-03T07:34:33.345Z,5.00
2023-01-03T07:37:05.322Z,5.35
2023-01-03T07:39:37.345Z,4.12
2023-01-03T07:42:27.461Z,4.47
2023-01-03T07:44:59.469Z,4.47
2023-01-03T07:47:32.186Z,5.87
2023-01-03T07:50:04.494Z,4.72
2023-01-03T07:52:37.136Z,4.80
2023-01-03T07:55:09.527Z,5.75
2023-01-03T07:57:42.606Z,6.72
2023-01-03T08:00:15.196Z,6.83
2023-01-03T08:02:48.400Z,5.47
2023-01-03T08:05:20.421Z,4.97
2023-01-03T08:07:53.264Z,5.42
2023-01-03T08:10:42.903Z,5.35
2023-01-03T08:13:20.584Z,6.90
2023-01-03T08:15:55.505Z,5.67
2023-01-03T08:18:29.301Z,6.53
2023-01-03T08:21:01.551Z,6.37
2023-01-03T08:23:33.627Z,8.03
2023-01-03T08:26:08.469Z,7.70
2023-01-03T08:28:41.439Z,5.42
2023-01-03T08:31:16.410Z,5.10
2023-01-03T08:33:57.711Z,6.78
2023-01-03T08:36:32.896Z,6.17
2023-01-03T08:39:10.812Z,6.30
2023-01-03T08:41:46.010Z,5.47
2023-01-03T08:44:18.296Z,6.62
2023-01-03T08:46:53.651Z,5.58
2023-01-03T08:49:26.355Z,6.92
2023-01-03T08:51:58.362Z,6.83
2023-01-03T08:54:30.282Z,6.08
2023-01-03T08:57:02.220Z,4.83
2023-01-03T08:59:34.821Z,5.37
2023-01-03T09:02:07.239Z,5.83
2023-01-03T09:04:40.477Z,5.12
2023-01-03T09:07:13.046Z,4.70
2023-01-03T09:09:45.123Z,5.12
2023-01-03T09:12:17.178Z,5.12
2023-01-03T09:14:49.152Z,6.08
2023-01-03T09:17:21.322Z,6.37
2023-01-03T09:19:53.544Z,5.28
2023-01-03T09:22:25.728Z,4.97
2023-01-03T09:24:57.815Z,4.80
2023-01-03T09:27:29.781Z,4.53
2023-01-03T09:30:02.035Z,5.45
2023-01-03T09:32:34.012Z,5.60
2023-01-03T09:35:06.369Z,5.37
2023-01-03T09:37:42.733Z,6.08
2023-01-03T09:40:13.369Z,4.50
2023-01-03T09:43:03.198Z,5.70
2023-01-03T09:45:36.103Z,5.85
2023-01-03T09:48:08.973Z,5.37
2023-01-03T09:51:14.945Z,6.00
2023-01-03T09:53:39.515Z,5.72
2023-01-03T09:56:31.314Z,5.10
2023-01-03T09:59:33.043Z,7.40
2023-01-03T10:02:51.156Z,5.58
2023-01-03T10:05:26.214Z,5.45
2023-01-03T10:08:04.237Z,4.60
2023-01-03T10:10:47.902Z,5.33
2023-01-03T10:13:41.032Z,6.75
2023-01-03T10:16:40.370Z,4.97
2023-01-03T10:19:23.972Z,5.67
2023-01-03T10:21:59.083Z,6.62
2023-01-03T10:24:34.528Z,5.50
2023-01-03T10:27:22.635Z,7.45
2023-01-03T10:29:57.532Z,6.33
2023-01-03T10:32:51.789Z,5.55
2023-01-03T10:35:26.485Z,7.35
2023-01-03T10:37:59.311Z,6.45
2023-01-03T10:40:39.823Z,8.48
2023-01-03T10:43:29.580Z,6.25
2023-01-03T10:46:16.859Z,8.40
2023-01-03T10:49:26.576Z,6.40
2023-01-03T10:51:45.579Z,6.72
2023-01-03T10:54:23.503Z,7.40
2023-01-03T10:56:55.512Z,7.03
2023-01-03T10:59:30.815Z,6.55
2023-01-03T11:02:16.851Z,5.67
2023-01-03T11:04:49.506Z,6.08
2023-01-03T11:07:21.656Z,9.30
2023-01-03T11:09:56.212Z,7.62
2023-01-03T11:12:39.751Z,7.75
2023-01-03T11:15:38.760Z,7.55
2023-01-03T11:18:20.757Z,6.67
2023-01-03T11:20:55.761Z,9.43
2023-01-03T11:23:30.620Z,6.80
2023-01-03T11:26:20.517Z,7.15
2023-01-03T11:28:58.345Z,6.05
2023-01-03T11:31:54.040Z,6.30
2023-01-03T11:35:21.412Z,7.95
2023-01-03T11:37:46.103Z,7.83
2023-01-03T11:40:29.681Z,7.22
2023-01-03T11:43:19.765Z,6.90
2023-01-03T11:46:15.872Z,8.00
2023-01-03T11:49:14.714Z,8.40
2023-01-03T11:52:10.323Z,8.65
2023-01-03T11:55:18.125Z,8.15
2023-01-03T11:57:58.730Z,8.63
2023-01-03T12:00:39.757Z,9.88
2023-01-03T12:03:23.524Z,8.43
2023-01-03T12:06:23.606Z,9.87
2023-01-03T12:09:08.183Z,9.23
2023-01-03T12:12:03.911Z,9.45
2023-01-03T12:14:38.739Z,6.90
2023-01-03T12:17:30.605Z,8.98
2023-01-03T12:20:11.116Z,9.08
2023-01-03T12:22:46.097Z,8.38
2023-01-03T12:25:30.090Z,9.80
2023-01-03T12:28:05.038Z,9.50
2023-01-03T12:30:49.733Z,8.73
2023-01-03T12:33:33.919Z,7.70
2023-01-03T12:36:28.164Z,9.33
2023-01-03T12:39:27.532Z,7.17
2023-01-03T12:42:07.861Z,7.15
2023-01-03T12:44:45.647Z,9.90
2023-01-03T12:47:42.103Z,8.15
2023-01-03T12:50:20.240Z,6.72
2023-01-03T12:52:55.219Z,8.20
2023-01-03T12:55:47.789Z,7.28
2023-01-03T12:58:22.855Z,7.05
2023-01-03T13:01:16.619Z,7.67
2023-01-03T13:03:54.738Z,6.03
2023-01-03T13:06:32.825Z,6.22
2023-01-03T13:09:07.721Z,4.78
2023-01-03T13:11:51.148Z,8.15
2023-01-03T13:14:26.035Z,6.83
2023-01-03T13:17:11.281Z,6.47
2023-01-03T13:19:54.788Z,6.30
2023-01-03T13:22:49.175Z,4.43
2023-01-03T13:25:40.038Z,5.17
2023-01-03T13:28:24.872Z,5.85
2023-01-03T13:33:56.346Z,5.95
2023-01-03T13:36:31.908Z,5.05
2023-01-03T13:39:05.397Z,6.17
2023-01-03T13:41:39.834Z,3.60
2023-01-03T13:44:23.479Z,5.83
2023-01-03T13:46:56.561Z,5.00
2023-01-03T13:49:30.087Z,6.17
2023-01-03T13:52:03.802Z,4.97
2023-01-03T13:54:38.331Z,4.97
2023-01-03T13:57:24.885Z,4.10
2023-01-03T14:00:01.891Z,5.58
2023-01-03T14:02:53.450Z,4.25
2023-01-03T14:05:47.621Z,5.65
2023-01-03T14:08:35.376Z,3.77
2023-01-03T14:11:26.467Z,5.83
2023-01-03T14:14:07.358Z,6.05
2023-01-03T14:16:48.787Z,8.70
2023-01-03T14:19:26.646Z,5.00
2023-01-03T14:22:27.637Z,5.55
2023-01-03T14:24:52.817Z,4.17
2023-01-03T14:27:36.431Z,3.37
2023-01-03T14:30:26.344Z,5.90
2023-01-03T14:33:00.408Z,4.70
2023-01-03T14:35:44.796Z,5.03
2023-01-03T14:38:28.298Z,4.22
2023-01-03T14:41:01.859Z,3.77
2023-01-03T14:43:36.028Z,5.55
2023-01-03T14:46:10.887Z,5.10
2023-01-03T14:48:46.311Z,5.47
2023-01-03T14:51:19.978Z,5.40
2023-01-03T14:53:53.917Z,4.80
2023-01-03T14:56:30.759Z,6.12
2023-01-03T14:59:04.615Z,5.00
2023-01-03T15:01:40.042Z,6.05
2023-01-03T15:04:31.795Z,5.10
2023-01-03T15:09:38.601Z,5.05
2023-01-03T15:12:18.765Z,4.65
2023-01-03T15:14:54.020Z,4.28
2023-01-03T15:17:28.301Z,5.87
2023-01-03T15:20:00.677Z,4.53
2023-01-03T15:22:36.394Z,6.12
2023-01-03T15:25:23.829Z,5.58
2023-01-03T15:27:57.263Z,6.70
2023-01-03T15:30:31.808Z,5.85
2023-01-03T15:33:26.154Z,6.25
2023-01-03T15:36:02.190Z,6.40
2023-01-03T15:41:23.738Z,3.37
2023-01-03T15:43:59.102Z,2.92
2023-01-03T15:46:33.697Z,4.62
2023-01-03T15:49:10.477Z,5.37
2023-01-03T15:51:43.664Z,4.70
2023-01-03T15:54:17.686Z,3.60
2023-01-03T15:57:07.115Z,4.00
2023-01-03T15:59:45.605Z,3.25
2023-01-03T16:02:32.928Z,3.85
2023-01-03T16:05:07.200Z,3.92
2023-01-03T16:07:40.552Z,4.15
2023-01-03T16:10:14.388Z,5.17
2023-01-03T16:12:47.431Z,5.37
2023-01-03T16:15:23.634Z,5.25
2023-01-03T16:17:55.832Z,2.80
2023-01-03T16:20:30.055Z,3.22
2023-01-03T16:23:03.326Z,3.90
2023-01-03T16:25:37.734Z,4.20
2023-01-03T16:28:12.620Z,3.33
2023-01-03T16:31:08.384Z,1.75
2023-01-03T16:33:44.078Z,3.50
2023-01-03T16:36:41.960Z,2.22
2023-01-03T16:39:19.886Z,1.85
2023-01-03T16:42:10.928Z,1.80
2023-01-03T16:44:46.707Z,2.60
2023-01-03T16:47:23.711Z,2.37
2023-01-03T16:50:01.055Z,1.52
2023-01-03T16:52:42.749Z,2.25
2023-01-03T16:55:30.588Z,2.50
2023-01-03T16:58:02.823Z,2.00
2023-01-03T17:00:37.177Z,1.50
2023-01-03T17:03:09.843Z,1.42
2023-01-03T17:05:44.105Z,2.77
2023-01-03T17:08:20.729Z,2.40
2023-01-03T17:11:01.331Z,1.40
2023-01-03T17:13:44.422Z,2.00
2023-01-03T17:16:20.066Z,2.15
2023-01-03T17:18:53.681Z,1.98
2023-01-03T17:21:35.344Z,1.32
2023-01-03T17:24:10.698Z,1.40
2023-01-03T17:26:43.851Z,2.27
2023-01-03T17:29:23.979Z,1.47
2023-01-03T17:31:56.654Z,1.52
2023-01-03T17:34:33.302Z,1.70
2023-01-03T17:37:09.773Z,3.12
2023-01-03T17:39:41.998Z,1.62
2023-01-03T17:42:18.762Z,0.98
2023-01-03T17:45:10.183Z,0.90
2023-01-03T17:48:02.723Z,1.10
2023-01-03T17:50:35.304Z,1.45
2023-01-03T17:53:09.230Z,2.60
2023-01-03T17:55:45.925Z,1.62
2023-01-03T17:58:34.348Z,2.20
2023-01-03T18:01:09.175Z,3.72
2023-01-03T18:03:42.341Z,1.77
2023-01-03T18:06:17.679Z,2.60
2023-01-03T18:08:54.102Z,1.85
2023-01-03T18:11:28.517Z,1.55
2023-01-03T18:14:05.191Z,3.17
2023-01-03T18:16:37.423Z,2.90
2023-01-03T18:19:09.993Z,2.40
2023-01-03T18:21:54.903Z,2.15
2023-01-03T18:24:31.913Z,1.95
2023-01-03T18:27:04.873Z,1.70
2023-01-03T18:29:39.042Z,1.77
2023-01-03T18:32:29.256Z,1.90
2023-01-03T18:35:02.818Z,1.62
2023-01-03T18:37:37.706Z,1.57
2023-01-03T18:40:19.892Z,1.32
2023-01-03T18:43:14.359Z,1.50
2023-01-03T18:45:46.809Z,1.57
2023-01-03T18:48:21.863Z,2.17
2023-01-03T18:50:59.043Z,1.22
2023-01-03T18:53:31.925Z,1.67
2023-01-03T18:56:04.567Z,1.77
2023-01-03T18:58:39.955Z,1.90
2023-01-03T19:01:12.081Z,1.50
2023-01-03T19:03:44.921Z,2.65
2023-01-03T19:06:42.994Z,1.67
2023-01-03T19:09:18.373Z,1.62
2023-01-03T19:11:51.368Z,1.40
2023-01-03T19:14:23.786Z,1.10
2023-01-03T19:16:56.356Z,2.42
2023-01-03T19:19:28.687Z,1.00
2023-01-03T19:22:00.689Z,1.75
2023-01-03T19:24:38.914Z,1.75
2023-01-03T19:27:18.440Z,1.30
2023-01-03T19:29:51.641Z,1.60
2023-01-03T19:32:29.218Z,0.82
2023-01-03T19:35:01.056Z,1.00
2023-01-03T19:37:33.232Z,1.47
2023-01-03T19:40:05.600Z,2.20
2023-01-03T19:42:49.894Z,1.90
2023-01-03T19:45:36.693Z,0.80
2023-01-03T19:48:26.584Z,2.27
2023-01-03T19:50:58.538Z,0.60
2023-01-03T19:53:30.583Z,0.50
2023-01-03T19:56:03.925Z,0.40
2023-01-03T19:58:38.886Z,0.80
2023-01-03T20:01:14.031Z,0.78
2023-01-03T20:03:46.430Z,0.30
2023-01-03T20:06:19.744Z,1.10
2023-01-03T20:08:53.389Z,1.37
2023-01-03T20:11:25.350Z,0.40
2023-01-03T20:13:57.571Z,0.47
2023-01-03T20:16:29.972Z,0.25
2023-01-03T20:19:02.750Z,0.33
2023-01-03T20:21:34.943Z,0.42
2023-01-03T20:24:08.420Z,0.30
2023-01-03T20:26:43.080Z,0.13
2023-01-03T20:29:16.154Z,0.60
2023-01-03T20:31:50.218Z,0.40
2023-01-03T20:36:56.214Z,0.50
2023-01-03T20:39:36.059Z,1.00
2023-01-03T20:42:11.716Z,0.50
2023-01-03T20:44:47.399Z,0.53
2023-01-03T20:47:23.266Z,0.13
2023-01-03T20:49:55.486Z,0.72
2023-01-03T20:52:27.695Z,0.20
2023-01-03T20:55:00.501Z,0.50
2023-01-03T20:57:32.524Z,0.60
2023-01-03T21:00:05.520Z,0.80
2023-01-03T21:02:36.869Z,1.22
2023-01-03T21:05:09.133Z,0.60
2023-01-03T21:07:58.698Z,0.93
2023-01-03T21:10:33.411Z,0.60
2023-01-03T21:13:05.759Z,0.80
2023-01-03T21:15:38.877Z,0.80
2023-01-03T21:18:12.357Z,0.30
2023-01-03T21:20:44.940Z,0.40
2023-01-03T21:23:24.679Z,0.55
2023-01-03T21:25:56.879Z,0.50
2023-01-03T21:28:28.976Z,0.50
2023-01-03T21:31:05.393Z,0.47
2023-01-03T21:33:35.067Z,0.78
2023-01-03T21:36:08.780Z,0.65
2023-01-03T21:38:40.855Z,0.80
2023-01-03T21:41:28.120Z,0.45
2023-01-03T21:44:03.434Z,1.47
2023-01-03T21:46:35.578Z,0.55
2023-01-03T21:49:07.554Z,0.40
2023-01-03T21:51:39.597Z,0.50
2023-01-03T21:54:11.766Z,0.45
2023-01-03T21:56:47.170Z,0.42
2023-01-03T21:59:19.472Z,1.57
2023-01-03T22:02:09.410Z,0.70
2023-01-03T22:04:41.719Z,0.33
2023-01-03T22:07:13.601Z,0.85
2023-01-03T22:10:03.156Z,0.57
2023-01-03T22:12:35.203Z,0.30
2023-01-03T22:15:07.915Z,0.70
2023-01-03T22:17:40.453Z,0.30
2023-01-03T22:20:15.224Z,0.20
2023-01-03T22:22:47.759Z,0.35
2023-01-03T22:25:21.688Z,0.10
2023-01-03T22:27:58.564Z,0.50
2023-01-03T22:30:30.654Z,0.42
2023-01-03T22:33:04.410Z,0.57
2023-01-03T22:35:36.305Z,0.10
2023-01-03T22:38:08.259Z,0.42
2023-01-03T22:40:40.376Z,0.40
2023-01-03T22:43:12.668Z,0.70
2023-01-03T22:45:44.705Z,0.35
2023-01-03T22:48:16.815Z,0.37
2023-01-03T22:50:48.906Z,0.60
2023-01-03T22:53:20.950Z,0.70
2023-01-03T22:55:53.080Z,0.33
2023-01-03T22:58:25.134Z,0.42
2023-01-03T23:00:57.252Z,0.35
2023-01-03T23:03:29.451Z,0.50
2023-01-03T23:06:06.931Z,0.13
2023-01-03T23:08:39.305Z,0.40
2023-01-03T23:11:34.192Z,0.95
2023-01-03T23:14:11.236Z,0.60
2023-01-03T23:16:43.320Z,0.62
2023-01-03T23:19:17.784Z,0.20
2023-01-03T23:21:49.763Z,0.60
2023-01-03T23:24:25.367Z,0.90
2023-01-03T23:26:57.396Z,0.50
2023-01-03T23:29:29.288Z,0.30
2023-01-03T23:32:01.627Z,0.57
2023-01-03T23:34:33.585Z,0.50
2023-01-03T23:37:05.549Z,0.40
2023-01-03T23:39:37.474Z,0.45
2023-01-03T23:42:09.477Z,0.53
2023-01-03T23:44:41.446Z,0.60
2023-01-03T23:47:13.437Z,0.50
2023-01-03T23:49:45.672Z,0.57
2023-01-03T23:52:17.629Z,0.60
2023-01-03T23:54:54.627Z,0.40
2023-01-03T23:57:23.475Z,0.30
2023-01-03T23:59:55.415Z,0.40
